Aberdovey, United Kingdom
Current Conditions -  °F | °C
As of 11:50 PM on Friday 21 Nov 2014 (Local Time) from EGOV Reporting Station
Rain Showers Rain Showers  
Wind Chill: 54°   Ceiling: 5000
Heat Index: 54°   Visibility: 1.2mi
Dew Point: 50°   Wind: 25mph
Humidity: 88%   Direction: 160°SSE
Pressure: 29.68"   Gusts: NA
Location:  52.55°N, 4.05°W
Report Text: EGOV 212350Z AUTO 16022KT 2000 SHRA FEW020/// BKN050/// 12/10 Q1005
Loading
Personal Weather Stations






























Interactive Weather Map New forecast layout! Learn more

10-Day Weather Forecast

Advertisements
Track Severe Weather on mobile